sensor_id;sensor_type;location;lat;lon;timestamp;P1;durP1;ratioP1;P2;durP2;ratioP2
3712;SDS011;1872;51.406;6.856;2022-08-20T00:00:42;16.63;;;11.63;;
3712;SDS011;1872;51.406;6.856;2022-08-20T00:03:29;17.57;;;12.87;;
3712;SDS011;1872;51.406;6.856;2022-08-20T00:08:36;22.53;;;13.27;;
3712;SDS011;1872;51.406;6.856;2022-08-20T00:11:03;19.50;;;12.30;;
3712;SDS011;1872;51.406;6.856;2022-08-20T00:13:34;18.80;;;11.80;;
3712;SDS011;1872;51.406;6.856;2022-08-20T00:16:02;19.37;;;13.40;;
3712;SDS011;1872;51.406;6.856;2022-08-20T00:18:29;20.00;;;13.13;;
3712;SDS011;1872;51.406;6.856;2022-08-20T00:20:55;18.60;;;12.67;;
3712;SDS011;1872;51.406;6.856;2022-08-20T00:23:22;16.00;;;12.00;;
3712;SDS011;1872;51.406;6.856;2022-08-20T00:25:48;20.03;;;11.97;;
3712;SDS011;1872;51.406;6.856;2022-08-20T00:28:16;22.57;;;13.80;;
3712;SDS011;1872;51.406;6.856;2022-08-20T00:30:43;18.00;;;12.30;;
3712;SDS011;1872;51.406;6.856;2022-08-20T00:33:11;20.13;;;13.63;;
3712;SDS011;1872;51.406;6.856;2022-08-20T00:35:41;20.33;;;12.87;;
3712;SDS011;1872;51.406;6.856;2022-08-20T00:38:08;20.33;;;12.67;;
3712;SDS011;1872;51.406;6.856;2022-08-20T00:40:39;18.63;;;12.40;;
3712;SDS011;1872;51.406;6.856;2022-08-20T00:45:54;20.93;;;13.47;;
3712;SDS011;1872;51.406;6.856;2022-08-20T00:48:22;23.27;;;14.93;;
3712;SDS011;1872;51.406;6.856;2022-08-20T00:50:49;22.10;;;13.23;;
3712;SDS011;1872;51.406;6.856;2022-08-20T00:53:15;19.93;;;13.43;;
3712;SDS011;1872;51.406;6.856;2022-08-20T00:55:42;20.50;;;12.60;;
3712;SDS011;1872;51.406;6.856;2022-08-20T00:58:10;23.67;;;13.77;;
3712;SDS011;1872;51.406;6.856;2022-08-20T01:00:40;20.77;;;12.90;;
3712;SDS011;1872;51.406;6.856;2022-08-20T01:03:10;19.00;;;11.73;;
3712;SDS011;1872;51.406;6.856;2022-08-20T01:05:44;19.60;;;13.50;;
3712;SDS011;1872;51.406;6.856;2022-08-20T01:08:13;22.53;;;12.50;;
3712;SDS011;1872;51.406;6.856;2022-08-20T01:10:42;22.90;;;13.20;;
3712;SDS011;1872;51.406;6.856;2022-08-20T01:13:12;24.70;;;14.60;;
3712;SDS011;1872;51.406;6.856;2022-08-20T01:15:46;21.83;;;13.83;;
3712;SDS011;1872;51.406;6.856;2022-08-20T01:18:15;19.07;;;11.87;;
3712;SDS011;1872;51.406;6.856;2022-08-20T01:20:45;23.63;;;13.97;;
3712;SDS011;1872;51.406;6.856;2022-08-20T01:26:11;18.80;;;11.97;;
3712;SDS011;1872;51.406;6.856;2022-08-20T01:28:47;24.20;;;14.37;;
3712;SDS011;1872;51.406;6.856;2022-08-20T01:31:18;24.37;;;12.77;;
3712;SDS011;1872;51.406;6.856;2022-08-20T01:33:47;18.97;;;11.97;;
3712;SDS011;1872;51.406;6.856;2022-08-20T01:36:14;17.70;;;11.97;;
3712;SDS011;1872;51.406;6.856;2022-08-20T01:38:41;16.20;;;11.07;;
3712;SDS011;1872;51.406;6.856;2022-08-20T01:41:09;22.70;;;11.80;;
3712;SDS011;1872;51.406;6.856;2022-08-20T01:43:50;19.07;;;12.77;;
3712;SDS011;1872;51.406;6.856;2022-08-20T01:46:29;21.17;;;11.50;;
3712;SDS011;1872;51.406;6.856;2022-08-20T01:48:58;16.20;;;10.50;;
3712;SDS011;1872;51.406;6.856;2022-08-20T01:51:30;19.40;;;12.13;;
3712;SDS011;1872;51.406;6.856;2022-08-20T01:53:57;19.20;;;11.23;;
3712;SDS011;1872;51.406;6.856;2022-08-20T01:56:25;18.57;;;12.90;;
3712;SDS011;1872;51.406;6.856;2022-08-20T01:58:53;16.00;;;10.67;;
3712;SDS011;1872;51.406;6.856;2022-08-20T02:03:52;18.00;;;12.20;;
3712;SDS011;1872;51.406;6.856;2022-08-20T02:06:20;18.90;;;11.90;;
3712;SDS011;1872;51.406;6.856;2022-08-20T02:08:50;18.13;;;12.60;;
3712;SDS011;1872;51.406;6.856;2022-08-20T02:11:17;20.80;;;12.70;;
3712;SDS011;1872;51.406;6.856;2022-08-20T02:13:43;23.30;;;14.37;;
3712;SDS011;1872;51.406;6.856;2022-08-20T02:16:09;20.60;;;12.27;;
3712;SDS011;1872;51.406;6.856;2022-08-20T02:18:34;16.63;;;12.37;;
3712;SDS011;1872;51.406;6.856;2022-08-20T02:21:01;16.37;;;12.00;;
3712;SDS011;1872;51.406;6.856;2022-08-20T02:23:27;19.93;;;12.70;;
3712;SDS011;1872;51.406;6.856;2022-08-20T02:25:53;20.17;;;12.23;;
3712;SDS011;1872;51.406;6.856;2022-08-20T02:28:19;17.50;;;12.33;;
3712;SDS011;1872;51.406;6.856;2022-08-20T02:30:47;19.43;;;13.67;;
3712;SDS011;1872;51.406;6.856;2022-08-20T02:33:17;17.70;;;12.83;;
3712;SDS011;1872;51.406;6.856;2022-08-20T02:35:45;18.43;;;11.90;;
3712;SDS011;1872;51.406;6.856;2022-08-20T02:38:13;17.77;;;12.73;;
3712;SDS011;1872;51.406;6.856;2022-08-20T02:40:40;18.77;;;12.53;;
3712;SDS011;1872;51.406;6.856;2022-08-20T02:43:08;17.27;;;12.03;;
3712;SDS011;1872;51.406;6.856;2022-08-20T02:45:34;19.70;;;12.87;;
3712;SDS011;1872;51.406;6.856;2022-08-20T02:48:02;21.33;;;12.30;;
3712;SDS011;1872;51.406;6.856;2022-08-20T02:50:29;17.33;;;11.80;;
3712;SDS011;1872;51.406;6.856;2022-08-20T02:52:55;20.30;;;13.30;;
3712;SDS011;1872;51.406;6.856;2022-08-20T02:55:21;17.43;;;12.93;;
3712;SDS011;1872;51.406;6.856;2022-08-20T02:57:47;20.63;;;12.60;;
3712;SDS011;1872;51.406;6.856;2022-08-20T03:00:15;19.07;;;12.57;;
3712;SDS011;1872;51.406;6.856;2022-08-20T03:02:43;17.53;;;12.40;;
3712;SDS011;1872;51.406;6.856;2022-08-20T03:05:09;19.27;;;13.47;;
3712;SDS011;1872;51.406;6.856;2022-08-20T03:07:43;17.73;;;11.67;;
3712;SDS011;1872;51.406;6.856;2022-08-20T03:10:11;20.23;;;13.23;;
3712;SDS011;1872;51.406;6.856;2022-08-20T03:12:37;17.60;;;12.77;;
3712;SDS011;1872;51.406;6.856;2022-08-20T03:15:04;17.80;;;12.67;;
3712;SDS011;1872;51.406;6.856;2022-08-20T03:17:31;16.23;;;11.33;;
3712;SDS011;1872;51.406;6.856;2022-08-20T03:19:57;16.67;;;11.97;;
3712;SDS011;1872;51.406;6.856;2022-08-20T03:22:22;20.47;;;13.03;;
3712;SDS011;1872;51.406;6.856;2022-08-20T03:24:48;18.80;;;12.67;;
3712;SDS011;1872;51.406;6.856;2022-08-20T03:27:13;20.17;;;11.20;;
3712;SDS011;1872;51.406;6.856;2022-08-20T03:29:39;19.03;;;12.57;;
3712;SDS011;1872;51.406;6.856;2022-08-20T03:32:05;19.93;;;11.83;;
3712;SDS011;1872;51.406;6.856;2022-08-20T03:34:31;18.63;;;13.40;;
3712;SDS011;1872;51.406;6.856;2022-08-20T03:36:56;18.07;;;11.87;;
3712;SDS011;1872;51.406;6.856;2022-08-20T03:39:22;20.07;;;13.47;;
3712;SDS011;1872;51.406;6.856;2022-08-20T03:41:48;20.83;;;12.40;;
3712;SDS011;1872;51.406;6.856;2022-08-20T03:44:14;17.53;;;11.03;;
3712;SDS011;1872;51.406;6.856;2022-08-20T03:46:39;14.17;;;11.07;;
3712;SDS011;1872;51.406;6.856;2022-08-20T03:49:05;20.27;;;12.87;;
3712;SDS011;1872;51.406;6.856;2022-08-20T03:51:34;20.07;;;11.87;;
3712;SDS011;1872;51.406;6.856;2022-08-20T03:54:00;17.37;;;12.40;;
3712;SDS011;1872;51.406;6.856;2022-08-20T03:56:26;20.90;;;12.80;;
3712;SDS011;1872;51.406;6.856;2022-08-20T03:58:54;18.63;;;12.90;;
3712;SDS011;1872;51.406;6.856;2022-08-20T04:01:19;21.30;;;13.37;;
3712;SDS011;1872;51.406;6.856;2022-08-20T04:03:45;19.60;;;13.30;;
3712;SDS011;1872;51.406;6.856;2022-08-20T04:06:11;18.13;;;12.47;;
3712;SDS011;1872;51.406;6.856;2022-08-20T04:08:37;17.63;;;12.43;;
3712;SDS011;1872;51.406;6.856;2022-08-20T04:11:04;21.00;;;13.07;;
3712;SDS011;1872;51.406;6.856;2022-08-20T04:13:30;17.70;;;12.20;;
3712;SDS011;1872;51.406;6.856;2022-08-20T04:15:57;18.53;;;12.63;;
3712;SDS011;1872;51.406;6.856;2022-08-20T04:18:25;20.80;;;13.40;;
3712;SDS011;1872;51.406;6.856;2022-08-20T04:20:51;16.07;;;10.97;;
3712;SDS011;1872;51.406;6.856;2022-08-20T04:23:18;19.40;;;13.30;;
3712;SDS011;1872;51.406;6.856;2022-08-20T04:25:45;16.30;;;12.17;;
3712;SDS011;1872;51.406;6.856;2022-08-20T04:28:18;17.00;;;11.73;;
3712;SDS011;1872;51.406;6.856;2022-08-20T04:30:49;21.40;;;13.43;;
3712;SDS011;1872;51.406;6.856;2022-08-20T04:33:16;19.60;;;12.23;;
3712;SDS011;1872;51.406;6.856;2022-08-20T04:35:43;17.00;;;11.30;;
3712;SDS011;1872;51.406;6.856;2022-08-20T04:38:10;17.87;;;11.67;;
3712;SDS011;1872;51.406;6.856;2022-08-20T04:40:39;20.10;;;11.87;;
3712;SDS011;1872;51.406;6.856;2022-08-20T04:43:17;20.63;;;13.40;;
3712;SDS011;1872;51.406;6.856;2022-08-20T04:45:53;19.00;;;12.10;;
3712;SDS011;1872;51.406;6.856;2022-08-20T04:48:22;16.70;;;11.70;;
3712;SDS011;1872;51.406;6.856;2022-08-20T04:50:48;16.50;;;11.83;;
3712;SDS011;1872;51.406;6.856;2022-08-20T04:53:16;16.70;;;10.73;;
3712;SDS011;1872;51.406;6.856;2022-08-20T04:55:43;17.87;;;11.67;;
3712;SDS011;1872;51.406;6.856;2022-08-20T04:58:12;21.00;;;12.20;;
3712;SDS011;1872;51.406;6.856;2022-08-20T05:00:51;17.53;;;11.03;;
3712;SDS011;1872;51.406;6.856;2022-08-20T05:03:19;16.93;;;11.47;;
3712;SDS011;1872;51.406;6.856;2022-08-20T05:05:46;16.87;;;11.47;;
3712;SDS011;1872;51.406;6.856;2022-08-20T05:08:13;17.50;;;11.23;;
3712;SDS011;1872;51.406;6.856;2022-08-20T05:10:40;16.80;;;12.63;;
3712;SDS011;1872;51.406;6.856;2022-08-20T05:13:07;18.23;;;12.03;;
3712;SDS011;1872;51.406;6.856;2022-08-20T05:15:36;18.27;;;13.17;;
3712;SDS011;1872;51.406;6.856;2022-08-20T05:18:03;18.17;;;12.30;;
3712;SDS011;1872;51.406;6.856;2022-08-20T05:20:32;20.37;;;13.70;;
3712;SDS011;1872;51.406;6.856;2022-08-20T05:23:03;17.60;;;11.70;;
3712;SDS011;1872;51.406;6.856;2022-08-20T05:25:31;22.10;;;13.23;;
3712;SDS011;1872;51.406;6.856;2022-08-20T05:27:58;24.30;;;12.63;;
3712;SDS011;1872;51.406;6.856;2022-08-20T05:30:26;20.10;;;13.83;;
3712;SDS011;1872;51.406;6.856;2022-08-20T05:32:58;18.37;;;12.40;;
3712;SDS011;1872;51.406;6.856;2022-08-20T05:35:24;18.03;;;12.43;;
3712;SDS011;1872;51.406;6.856;2022-08-20T05:37:51;21.57;;;13.40;;
3712;SDS011;1872;51.406;6.856;2022-08-20T05:40:18;19.53;;;13.67;;
3712;SDS011;1872;51.406;6.856;2022-08-20T05:42:47;20.70;;;12.37;;
3712;SDS011;1872;51.406;6.856;2022-08-20T05:45:13;25.80;;;14.67;;
3712;SDS011;1872;51.406;6.856;2022-08-20T05:47:41;17.63;;;12.80;;
3712;SDS011;1872;51.406;6.856;2022-08-20T05:50:09;18.93;;;12.90;;
3712;SDS011;1872;51.406;6.856;2022-08-20T05:52:39;18.33;;;12.57;;
3712;SDS011;1872;51.406;6.856;2022-08-20T05:55:06;18.37;;;12.27;;
3712;SDS011;1872;51.406;6.856;2022-08-20T05:57:33;20.77;;;13.43;;
3712;SDS011;1872;51.406;6.856;2022-08-20T06:00:00;22.23;;;13.53;;
3712;SDS011;1872;51.406;6.856;2022-08-20T06:02:29;21.77;;;15.60;;
3712;SDS011;1872;51.406;6.856;2022-08-20T06:05:13;19.77;;;13.73;;
3712;SDS011;1872;51.406;6.856;2022-08-20T06:07:39;28.83;;;14.87;;
3712;SDS011;1872;51.406;6.856;2022-08-20T06:10:05;19.27;;;13.00;;
3712;SDS011;1872;51.406;6.856;2022-08-20T06:12:33;24.00;;;15.00;;
3712;SDS011;1872;51.406;6.856;2022-08-20T06:14:59;22.73;;;14.40;;
3712;SDS011;1872;51.406;6.856;2022-08-20T06:17:24;24.80;;;14.70;;
3712;SDS011;1872;51.406;6.856;2022-08-20T06:19:51;24.87;;;15.50;;
3712;SDS011;1872;51.406;6.856;2022-08-20T06:22:17;26.00;;;16.17;;
3712;SDS011;1872;51.406;6.856;2022-08-20T06:24:42;26.50;;;16.50;;
3712;SDS011;1872;51.406;6.856;2022-08-20T06:27:11;23.27;;;15.40;;
3712;SDS011;1872;51.406;6.856;2022-08-20T06:29:38;21.97;;;14.90;;
3712;SDS011;1872;51.406;6.856;2022-08-20T06:32:04;24.90;;;16.30;;
3712;SDS011;1872;51.406;6.856;2022-08-20T06:34:30;26.33;;;16.17;;
3712;SDS011;1872;51.406;6.856;2022-08-20T06:36:56;24.80;;;17.47;;
3712;SDS011;1872;51.406;6.856;2022-08-20T06:39:23;25.00;;;17.90;;
3712;SDS011;1872;51.406;6.856;2022-08-20T06:41:49;25.03;;;15.53;;
3712;SDS011;1872;51.406;6.856;2022-08-20T06:44:18;23.87;;;16.20;;
3712;SDS011;1872;51.406;6.856;2022-08-20T06:46:43;25.40;;;16.20;;
3712;SDS011;1872;51.406;6.856;2022-08-20T06:49:09;23.60;;;16.43;;
3712;SDS011;1872;51.406;6.856;2022-08-20T06:51:35;20.63;;;15.17;;
3712;SDS011;1872;51.406;6.856;2022-08-20T06:54:04;23.13;;;15.70;;
3712;SDS011;1872;51.406;6.856;2022-08-20T06:56:30;23.50;;;15.63;;
3712;SDS011;1872;51.406;6.856;2022-08-20T06:58:57;25.70;;;17.00;;
3712;SDS011;1872;51.406;6.856;2022-08-20T07:01:23;27.70;;;17.00;;
3712;SDS011;1872;51.406;6.856;2022-08-20T07:03:49;23.37;;;15.20;;
3712;SDS011;1872;51.406;6.856;2022-08-20T07:06:15;24.90;;;16.30;;
3712;SDS011;1872;51.406;6.856;2022-08-20T07:08:42;26.77;;;15.70;;
3712;SDS011;1872;51.406;6.856;2022-08-20T07:11:09;23.77;;;15.90;;
3712;SDS011;1872;51.406;6.856;2022-08-20T07:13:35;27.10;;;17.03;;
3712;SDS011;1872;51.406;6.856;2022-08-20T07:16:04;23.90;;;16.33;;
3712;SDS011;1872;51.406;6.856;2022-08-20T07:18:31;31.43;;;17.33;;
3712;SDS011;1872;51.406;6.856;2022-08-20T07:20:56;26.17;;;17.73;;
3712;SDS011;1872;51.406;6.856;2022-08-20T07:23:25;25.13;;;15.77;;
3712;SDS011;1872;51.406;6.856;2022-08-20T07:25:51;24.30;;;16.43;;
3712;SDS011;1872;51.406;6.856;2022-08-20T07:28:20;27.73;;;17.60;;
3712;SDS011;1872;51.406;6.856;2022-08-20T07:30:50;25.60;;;17.43;;
3712;SDS011;1872;51.406;6.856;2022-08-20T07:33:35;27.17;;;17.20;;
3712;SDS011;1872;51.406;6.856;2022-08-20T07:36:04;32.70;;;18.33;;
3712;SDS011;1872;51.406;6.856;2022-08-20T07:38:31;29.90;;;19.13;;
3712;SDS011;1872;51.406;6.856;2022-08-20T07:40:59;31.07;;;19.57;;
3712;SDS011;1872;51.406;6.856;2022-08-20T07:43:28;31.17;;;18.67;;
3712;SDS011;1872;51.406;6.856;2022-08-20T07:45:56;25.87;;;18.20;;
3712;SDS011;1872;51.406;6.856;2022-08-20T07:48:26;25.50;;;18.03;;
3712;SDS011;1872;51.406;6.856;2022-08-20T07:50:54;20.20;;;16.03;;
3712;SDS011;1872;51.406;6.856;2022-08-20T07:53:21;22.10;;;16.27;;
3712;SDS011;1872;51.406;6.856;2022-08-20T07:55:47;21.90;;;15.27;;
3712;SDS011;1872;51.406;6.856;2022-08-20T07:58:14;23.27;;;15.53;;
3712;SDS011;1872;51.406;6.856;2022-08-20T08:00:46;24.67;;;16.30;;
3712;SDS011;1872;51.406;6.856;2022-08-20T08:03:12;24.00;;;16.50;;
3712;SDS011;1872;51.406;6.856;2022-08-20T08:05:38;16.13;;;11.77;;
3712;SDS011;1872;51.406;6.856;2022-08-20T08:08:08;29.17;;;18.17;;
3712;SDS011;1872;51.406;6.856;2022-08-20T08:10:37;33.60;;;20.97;;
3712;SDS011;1872;51.406;6.856;2022-08-20T08:13:07;22.77;;;14.17;;
3712;SDS011;1872;51.406;6.856;2022-08-20T08:15:36;28.60;;;17.07;;
3712;SDS011;1872;51.406;6.856;2022-08-20T08:18:20;24.80;;;16.07;;
3712;SDS011;1872;51.406;6.856;2022-08-20T08:20:48;34.10;;;20.70;;
3712;SDS011;1872;51.406;6.856;2022-08-20T08:23:18;30.97;;;20.60;;
3712;SDS011;1872;51.406;6.856;2022-08-20T08:25:45;32.47;;;20.47;;
3712;SDS011;1872;51.406;6.856;2022-08-20T08:28:12;30.08;;;20.40;;
3712;SDS011;1872;51.406;6.856;2022-08-20T08:30:39;37.07;;;23.40;;
3712;SDS011;1872;51.406;6.856;2022-08-20T08:33:12;33.93;;;21.63;;
3712;SDS011;1872;51.406;6.856;2022-08-20T08:35:59;31.60;;;19.37;;
3712;SDS011;1872;51.406;6.856;2022-08-20T08:38:28;29.97;;;20.37;;
3712;SDS011;1872;51.406;6.856;2022-08-20T08:41:03;22.57;;;13.57;;
3712;SDS011;1872;51.406;6.856;2022-08-20T08:43:53;29.23;;;17.03;;
3712;SDS011;1872;51.406;6.856;2022-08-20T08:46:46;29.93;;;20.20;;
3712;SDS011;1872;51.406;6.856;2022-08-20T08:52:37;29.80;;;20.70;;
3712;SDS011;1872;51.406;6.856;2022-08-20T08:55:06;30.13;;;20.50;;
3712;SDS011;1872;51.406;6.856;2022-08-20T08:57:36;32.00;;;19.10;;
3712;SDS011;1872;51.406;6.856;2022-08-20T09:00:07;26.20;;;17.37;;
3712;SDS011;1872;51.406;6.856;2022-08-20T09:02:39;27.00;;;18.10;;
3712;SDS011;1872;51.406;6.856;2022-08-20T09:05:43;33.47;;;18.50;;
3712;SDS011;1872;51.406;6.856;2022-08-20T09:08:14;28.53;;;19.17;;
3712;SDS011;1872;51.406;6.856;2022-08-20T09:10:43;29.97;;;19.17;;
3712;SDS011;1872;51.406;6.856;2022-08-20T09:13:10;28.37;;;19.53;;
3712;SDS011;1872;51.406;6.856;2022-08-20T09:15:36;29.57;;;17.87;;
3712;SDS011;1872;51.406;6.856;2022-08-20T09:18:02;32.10;;;20.57;;
3712;SDS011;1872;51.406;6.856;2022-08-20T09:20:30;29.33;;;20.90;;
3712;SDS011;1872;51.406;6.856;2022-08-20T09:22:58;29.80;;;18.10;;
3712;SDS011;1872;51.406;6.856;2022-08-20T09:25:27;22.60;;;15.37;;
3712;SDS011;1872;51.406;6.856;2022-08-20T09:27:53;27.60;;;18.97;;
3712;SDS011;1872;51.406;6.856;2022-08-20T09:30:18;21.43;;;15.13;;
3712;SDS011;1872;51.406;6.856;2022-08-20T09:32:44;19.80;;;13.50;;
3712;SDS011;1872;51.406;6.856;2022-08-20T09:35:10;20.27;;;15.17;;
3712;SDS011;1872;51.406;6.856;2022-08-20T09:37:37;22.10;;;15.60;;
3712;SDS011;1872;51.406;6.856;2022-08-20T09:40:03;20.90;;;13.33;;
3712;SDS011;1872;51.406;6.856;2022-08-20T09:42:32;22.53;;;14.80;;
3712;SDS011;1872;51.406;6.856;2022-08-20T09:44:59;22.53;;;15.10;;
3712;SDS011;1872;51.406;6.856;2022-08-20T09:47:25;21.50;;;13.43;;
3712;SDS011;1872;51.406;6.856;2022-08-20T09:49:52;20.53;;;14.30;;
3712;SDS011;1872;51.406;6.856;2022-08-20T09:52:21;15.53;;;12.73;;
3712;SDS011;1872;51.406;6.856;2022-08-20T09:54:48;16.87;;;12.90;;
3712;SDS011;1872;51.406;6.856;2022-08-20T09:57:17;17.70;;;12.40;;
3712;SDS011;1872;51.406;6.856;2022-08-20T09:59:46;19.87;;;12.17;;
3712;SDS011;1872;51.406;6.856;2022-08-20T10:02:18;20.30;;;13.30;;
3712;SDS011;1872;51.406;6.856;2022-08-20T10:04:44;19.90;;;13.83;;
3712;SDS011;1872;51.406;6.856;2022-08-20T10:07:12;17.63;;;12.70;;
3712;SDS011;1872;51.406;6.856;2022-08-20T10:09:39;19.17;;;13.17;;
3712;SDS011;1872;51.406;6.856;2022-08-20T10:12:05;16.20;;;11.87;;
3712;SDS011;1872;51.406;6.856;2022-08-20T10:14:31;15.30;;;11.50;;
3712;SDS011;1872;51.406;6.856;2022-08-20T10:16:58;16.20;;;11.10;;
3712;SDS011;1872;51.406;6.856;2022-08-20T10:19:25;18.80;;;12.87;;
3712;SDS011;1872;51.406;6.856;2022-08-20T10:21:51;21.70;;;13.07;;
3712;SDS011;1872;51.406;6.856;2022-08-20T10:24:18;22.10;;;12.63;;
3712;SDS011;1872;51.406;6.856;2022-08-20T10:26:45;20.00;;;13.00;;
3712;SDS011;1872;51.406;6.856;2022-08-20T10:29:11;18.97;;;13.73;;
3712;SDS011;1872;51.406;6.856;2022-08-20T10:31:37;19.63;;;11.93;;
3712;SDS011;1872;51.406;6.856;2022-08-20T10:34:02;18.40;;;12.10;;
3712;SDS011;1872;51.406;6.856;2022-08-20T10:36:31;16.30;;;10.63;;
3712;SDS011;1872;51.406;6.856;2022-08-20T10:38:56;19.83;;;11.90;;
3712;SDS011;1872;51.406;6.856;2022-08-20T10:41:22;19.30;;;12.27;;
3712;SDS011;1872;51.406;6.856;2022-08-20T10:43:48;19.90;;;13.67;;
3712;SDS011;1872;51.406;6.856;2022-08-20T10:46:14;21.00;;;12.17;;
3712;SDS011;1872;51.406;6.856;2022-08-20T10:48:40;17.60;;;12.23;;
3712;SDS011;1872;51.406;6.856;2022-08-20T10:51:06;18.43;;;11.40;;
3712;SDS011;1872;51.406;6.856;2022-08-20T10:53:32;20.53;;;14.67;;
3712;SDS011;1872;51.406;6.856;2022-08-20T10:55:58;19.13;;;12.97;;
3712;SDS011;1872;51.406;6.856;2022-08-20T10:58:34;19.77;;;11.60;;
3712;SDS011;1872;51.406;6.856;2022-08-20T11:01:00;15.90;;;11.07;;
3712;SDS011;1872;51.406;6.856;2022-08-20T11:03:25;20.83;;;12.63;;
3712;SDS011;1872;51.406;6.856;2022-08-20T11:05:51;9.50;;;7.67;;
3712;SDS011;1872;51.406;6.856;2022-08-20T11:08:17;15.27;;;10.77;;
3712;SDS011;1872;51.406;6.856;2022-08-20T11:10:43;22.90;;;14.07;;
3712;SDS011;1872;51.406;6.856;2022-08-20T11:13:09;11.33;;;9.77;;
3712;SDS011;1872;51.406;6.856;2022-08-20T11:15:38;16.80;;;10.33;;
3712;SDS011;1872;51.406;6.856;2022-08-20T11:18:06;12.73;;;9.90;;
3712;SDS011;1872;51.406;6.856;2022-08-20T11:20:32;19.43;;;12.77;;
3712;SDS011;1872;51.406;6.856;2022-08-20T11:22:58;19.93;;;14.10;;
3712;SDS011;1872;51.406;6.856;2022-08-20T11:25:27;20.73;;;14.83;;
3712;SDS011;1872;51.406;6.856;2022-08-20T11:27:54;20.27;;;14.13;;
3712;SDS011;1872;51.406;6.856;2022-08-20T11:30:22;16.60;;;11.20;;
3712;SDS011;1872;51.406;6.856;2022-08-20T11:32:53;23.00;;;14.40;;
3712;SDS011;1872;51.406;6.856;2022-08-20T11:35:20;12.50;;;9.83;;
3712;SDS011;1872;51.406;6.856;2022-08-20T11:37:48;14.47;;;11.13;;
3712;SDS011;1872;51.406;6.856;2022-08-20T11:40:19;17.63;;;13.00;;
3712;SDS011;1872;51.406;6.856;2022-08-20T11:42:45;21.50;;;13.63;;
3712;SDS011;1872;51.406;6.856;2022-08-20T11:45:11;17.00;;;12.63;;
3712;SDS011;1872;51.406;6.856;2022-08-20T11:47:38;16.47;;;12.80;;
3712;SDS011;1872;51.406;6.856;2022-08-20T11:50:06;18.20;;;12.70;;
3712;SDS011;1872;51.406;6.856;2022-08-20T11:52:34;13.60;;;11.40;;
3712;SDS011;1872;51.406;6.856;2022-08-20T11:55:00;20.33;;;14.53;;
3712;SDS011;1872;51.406;6.856;2022-08-20T11:57:27;17.37;;;13.00;;
3712;SDS011;1872;51.406;6.856;2022-08-20T11:59:55;20.13;;;13.13;;
3712;SDS011;1872;51.406;6.856;2022-08-20T12:02:23;20.20;;;13.60;;
3712;SDS011;1872;51.406;6.856;2022-08-20T12:04:52;11.10;;;8.80;;
3712;SDS011;1872;51.406;6.856;2022-08-20T12:07:19;15.90;;;12.37;;
3712;SDS011;1872;51.406;6.856;2022-08-20T12:09:49;16.63;;;11.23;;
3712;SDS011;1872;51.406;6.856;2022-08-20T12:12:16;10.43;;;8.87;;
3712;SDS011;1872;51.406;6.856;2022-08-20T12:14:44;16.53;;;11.97;;
3712;SDS011;1872;51.406;6.856;2022-08-20T12:17:12;18.37;;;14.03;;
3712;SDS011;1872;51.406;6.856;2022-08-20T12:19:49;21.00;;;13.73;;
3712;SDS011;1872;51.406;6.856;2022-08-20T12:22:16;19.10;;;13.47;;
3712;SDS011;1872;51.406;6.856;2022-08-20T12:24:42;15.33;;;12.90;;
3712;SDS011;1872;51.406;6.856;2022-08-20T12:27:09;13.00;;;10.33;;
3712;SDS011;1872;51.406;6.856;2022-08-20T12:29:37;10.87;;;9.80;;
3712;SDS011;1872;51.406;6.856;2022-08-20T12:32:04;10.60;;;9.50;;
3712;SDS011;1872;51.406;6.856;2022-08-20T12:34:31;20.63;;;12.57;;
3712;SDS011;1872;51.406;6.856;2022-08-20T12:37:00;16.53;;;11.30;;
3712;SDS011;1872;51.406;6.856;2022-08-20T12:39:34;11.03;;;9.17;;
3712;SDS011;1872;51.406;6.856;2022-08-20T12:42:06;15.97;;;11.30;;
3712;SDS011;1872;51.406;6.856;2022-08-20T12:44:33;20.53;;;13.57;;
3712;SDS011;1872;51.406;6.856;2022-08-20T12:49:35;13.80;;;10.57;;
3712;SDS011;1872;51.406;6.856;2022-08-20T12:52:05;19.03;;;12.40;;
3712;SDS011;1872;51.406;6.856;2022-08-20T12:54:31;20.00;;;11.60;;
3712;SDS011;1872;51.406;6.856;2022-08-20T12:56:57;10.70;;;9.23;;
3712;SDS011;1872;51.406;6.856;2022-08-20T12:59:23;12.07;;;9.87;;
3712;SDS011;1872;51.406;6.856;2022-08-20T13:01:49;12.27;;;9.67;;
3712;SDS011;1872;51.406;6.856;2022-08-20T13:04:16;12.50;;;10.90;;
3712;SDS011;1872;51.406;6.856;2022-08-20T13:06:42;14.10;;;10.93;;
3712;SDS011;1872;51.406;6.856;2022-08-20T13:09:07;15.77;;;10.87;;
3712;SDS011;1872;51.406;6.856;2022-08-20T13:11:33;14.90;;;11.00;;
3712;SDS011;1872;51.406;6.856;2022-08-20T13:13:59;10.03;;;7.97;;
3712;SDS011;1872;51.406;6.856;2022-08-20T13:16:27;11.20;;;9.00;;
3712;SDS011;1872;51.406;6.856;2022-08-20T13:18:53;9.60;;;8.63;;
3712;SDS011;1872;51.406;6.856;2022-08-20T13:21:18;23.27;;;11.10;;
3712;SDS011;1872;51.406;6.856;2022-08-20T13:23:44;13.30;;;10.27;;
3712;SDS011;1872;51.406;6.856;2022-08-20T13:26:10;20.23;;;11.70;;
3712;SDS011;1872;51.406;6.856;2022-08-20T13:28:36;15.60;;;10.23;;
3712;SDS011;1872;51.406;6.856;2022-08-20T13:31:01;14.50;;;10.03;;
3712;SDS011;1872;51.406;6.856;2022-08-20T13:33:27;11.67;;;9.03;;
3712;SDS011;1872;51.406;6.856;2022-08-20T13:35:55;14.30;;;10.10;;
3712;SDS011;1872;51.406;6.856;2022-08-20T13:38:23;11.33;;;8.30;;
3712;SDS011;1872;51.406;6.856;2022-08-20T13:40:49;11.50;;;8.30;;
3712;SDS011;1872;51.406;6.856;2022-08-20T13:43:15;10.77;;;7.50;;
3712;SDS011;1872;51.406;6.856;2022-08-20T13:45:41;10.27;;;7.77;;
3712;SDS011;1872;51.406;6.856;2022-08-20T13:48:07;12.07;;;8.10;;
3712;SDS011;1872;51.406;6.856;2022-08-20T13:50:33;8.00;;;6.80;;
3712;SDS011;1872;51.406;6.856;2022-08-20T13:53:00;7.70;;;6.90;;
3712;SDS011;1872;51.406;6.856;2022-08-20T13:55:27;9.10;;;6.10;;
3712;SDS011;1872;51.406;6.856;2022-08-20T13:57:53;8.37;;;6.67;;
3712;SDS011;1872;51.406;6.856;2022-08-20T14:00:25;8.50;;;6.40;;
3712;SDS011;1872;51.406;6.856;2022-08-20T14:02:53;17.50;;;7.67;;
3712;SDS011;1872;51.406;6.856;2022-08-20T14:05:19;11.30;;;6.63;;
3712;SDS011;1872;51.406;6.856;2022-08-20T14:07:45;8.83;;;6.70;;
3712;SDS011;1872;51.406;6.856;2022-08-20T14:10:14;10.47;;;7.33;;
3712;SDS011;1872;51.406;6.856;2022-08-20T14:12:48;9.33;;;6.80;;
3712;SDS011;1872;51.406;6.856;2022-08-20T14:15:17;10.47;;;6.90;;
3712;SDS011;1872;51.406;6.856;2022-08-20T14:17:49;8.00;;;6.50;;
3712;SDS011;1872;51.406;6.856;2022-08-20T14:20:17;7.00;;;6.20;;
3712;SDS011;1872;51.406;6.856;2022-08-20T14:22:46;8.70;;;5.90;;
3712;SDS011;1872;51.406;6.856;2022-08-20T14:25:13;11.40;;;7.50;;
3712;SDS011;1872;51.406;6.856;2022-08-20T14:27:41;13.77;;;6.90;;
3712;SDS011;1872;51.406;6.856;2022-08-20T14:30:08;8.17;;;6.60;;
3712;SDS011;1872;51.406;6.856;2022-08-20T14:32:36;7.00;;;6.30;;
3712;SDS011;1872;51.406;6.856;2022-08-20T14:35:02;8.07;;;6.67;;
3712;SDS011;1872;51.406;6.856;2022-08-20T14:37:30;10.00;;;6.40;;
3712;SDS011;1872;51.406;6.856;2022-08-20T14:39:58;28.50;;;10.00;;
3712;SDS011;1872;51.406;6.856;2022-08-20T14:42:25;6.53;;;5.40;;
3712;SDS011;1872;51.406;6.856;2022-08-20T14:44:52;9.43;;;6.33;;
3712;SDS011;1872;51.406;6.856;2022-08-20T14:47:20;8.07;;;5.40;;
3712;SDS011;1872;51.406;6.856;2022-08-20T14:49:48;7.83;;;5.63;;
3712;SDS011;1872;51.406;6.856;2022-08-20T14:52:16;7.27;;;5.70;;
3712;SDS011;1872;51.406;6.856;2022-08-20T14:54:43;6.67;;;5.37;;
3712;SDS011;1872;51.406;6.856;2022-08-20T14:57:13;6.67;;;5.43;;
3712;SDS011;1872;51.406;6.856;2022-08-20T14:59:40;10.43;;;5.40;;
3712;SDS011;1872;51.406;6.856;2022-08-20T15:02:07;6.23;;;5.73;;
3712;SDS011;1872;51.406;6.856;2022-08-20T15:04:35;9.70;;;6.17;;
3712;SDS011;1872;51.406;6.856;2022-08-20T15:07:01;8.50;;;5.20;;
3712;SDS011;1872;51.406;6.856;2022-08-20T15:09:32;7.67;;;5.10;;
3712;SDS011;1872;51.406;6.856;2022-08-20T15:12:00;8.43;;;5.40;;